sensor_id;sensor_type;location;lat;lon;timestamp;pressure;altitude;pressure_sealevel;temperature;humidity
76940;BME280;65885;55.848;35.916;2023-05-31T00:01:07;99080.78;;;12.41;67.04
76940;BME280;65885;55.848;35.916;2023-05-31T00:03:34;99078.13;;;12.41;66.92
76940;BME280;65885;55.848;35.916;2023-05-31T00:06:06;99081.63;;;12.42;67.19
76940;BME280;65885;55.848;35.916;2023-05-31T00:08:34;99092.13;;;12.42;67.17
76940;BME280;65885;55.848;35.916;2023-05-31T00:11:03;99098.34;;;12.41;66.53
76940;BME280;65885;55.848;35.916;2023-05-31T00:13:30;99094.00;;;12.40;67.04
76940;BME280;65885;55.848;35.916;2023-05-31T00:15:58;99086.19;;;12.38;67.71
76940;BME280;65885;55.848;35.916;2023-05-31T00:18:25;99094.25;;;12.35;67.87
76940;BME280;65885;55.848;35.916;2023-05-31T00:20:53;99099.69;;;12.32;67.87
76940;BME280;65885;55.848;35.916;2023-05-31T00:23:21;99104.06;;;12.32;67.70
76940;BME280;65885;55.848;35.916;2023-05-31T00:25:49;99108.56;;;12.30;68.14
76940;BME280;65885;55.848;35.916;2023-05-31T00:28:17;99109.69;;;12.26;68.53
76940;BME280;65885;55.848;35.916;2023-05-31T00:30:45;99112.44;;;12.22;68.51
76940;BME280;65885;55.848;35.916;2023-05-31T00:33:12;99108.88;;;12.23;68.22
76940;BME280;65885;55.848;35.916;2023-05-31T00:35:40;99114.31;;;12.20;67.86
76940;BME280;65885;55.848;35.916;2023-05-31T00:38:07;99107.53;;;12.16;68.07
76940;BME280;65885;55.848;35.916;2023-05-31T00:40:35;99108.63;;;12.12;68.57
76940;BME280;65885;55.848;35.916;2023-05-31T00:43:02;99117.53;;;12.10;68.76
76940;BME280;65885;55.848;35.916;2023-05-31T00:45:33;99117.69;;;12.07;68.30
76940;BME280;65885;55.848;35.916;2023-05-31T00:48:01;99124.03;;;12.03;68.96
76940;BME280;65885;55.848;35.916;2023-05-31T00:50:29;99120.63;;;12.01;69.00
76940;BME280;65885;55.848;35.916;2023-05-31T00:52:59;99117.31;;;11.97;69.28
76940;BME280;65885;55.848;35.916;2023-05-31T00:55:29;99104.28;;;11.96;69.61
76940;BME280;65885;55.848;35.916;2023-05-31T00:57:57;99107.00;;;11.94;69.45
76940;BME280;65885;55.848;35.916;2023-05-31T01:00:24;99108.81;;;11.92;69.54
76940;BME280;65885;55.848;35.916;2023-05-31T01:02:54;99114.16;;;11.90;69.42
76940;BME280;65885;55.848;35.916;2023-05-31T01:05:21;99109.94;;;11.88;69.45
76940;BME280;65885;55.848;35.916;2023-05-31T01:07:49;99110.88;;;11.87;69.21
76940;BME280;65885;55.848;35.916;2023-05-31T01:10:17;99104.81;;;11.85;69.61
76940;BME280;65885;55.848;35.916;2023-05-31T01:12:52;99104.06;;;11.83;69.65
76940;BME280;65885;55.848;35.916;2023-05-31T01:15:25;99101.56;;;11.80;69.70
76940;BME280;65885;55.848;35.916;2023-05-31T01:17:59;99096.38;;;11.78;69.45
76940;BME280;65885;55.848;35.916;2023-05-31T01:20:31;99098.13;;;11.78;69.19
76940;BME280;65885;55.848;35.916;2023-05-31T01:23:20;99095.69;;;11.75;69.72
76940;BME280;65885;55.848;35.916;2023-05-31T01:26:09;99096.72;;;11.72;69.61
76940;BME280;65885;55.848;35.916;2023-05-31T01:28:48;99086.34;;;11.69;69.77
76940;BME280;65885;55.848;35.916;2023-05-31T01:31:21;99078.53;;;11.67;69.98
76940;BME280;65885;55.848;35.916;2023-05-31T01:33:49;99078.53;;;11.67;70.33
76940;BME280;65885;55.848;35.916;2023-05-31T01:36:17;99073.38;;;11.66;70.29
76940;BME280;65885;55.848;35.916;2023-05-31T01:38:44;99062.94;;;11.64;70.75
76940;BME280;65885;55.848;35.916;2023-05-31T01:41:12;99070.84;;;11.64;70.85
76940;BME280;65885;55.848;35.916;2023-05-31T01:43:42;99072.53;;;11.65;70.84
76940;BME280;65885;55.848;35.916;2023-05-31T01:46:14;99081.25;;;11.66;70.99
76940;BME280;65885;55.848;35.916;2023-05-31T01:48:42;99077.78;;;11.65;70.83
76940;BME280;65885;55.848;35.916;2023-05-31T01:51:11;99084.72;;;11.66;71.05
76940;BME280;65885;55.848;35.916;2023-05-31T01:53:40;99083.88;;;11.66;70.75
76940;BME280;65885;55.848;35.916;2023-05-31T01:56:08;99083.13;;;11.64;71.12
76940;BME280;65885;55.848;35.916;2023-05-31T01:58:37;99087.50;;;11.63;71.05
76940;BME280;65885;55.848;35.916;2023-05-31T02:01:08;99094.53;;;11.63;70.76
76940;BME280;65885;55.848;35.916;2023-05-31T02:03:38;99093.78;;;11.61;71.27
76940;BME280;65885;55.848;35.916;2023-05-31T02:06:06;99097.50;;;11.57;70.92
76940;BME280;65885;55.848;35.916;2023-05-31T02:08:34;99101.09;;;11.54;70.92
76940;BME280;65885;55.848;35.916;2023-05-31T02:11:01;99096.69;;;11.55;71.30
76940;BME280;65885;55.848;35.916;2023-05-31T02:13:30;99103.91;;;11.51;71.40
76940;BME280;65885;55.848;35.916;2023-05-31T02:15:58;99097.03;;;11.49;71.44
76940;BME280;65885;55.848;35.916;2023-05-31T02:18:26;99108.38;;;11.49;71.86
76940;BME280;65885;55.848;35.916;2023-05-31T02:21:15;99094.41;;;11.49;71.79
76940;BME280;65885;55.848;35.916;2023-05-31T02:23:42;99097.03;;;11.49;71.66
76940;BME280;65885;55.848;35.916;2023-05-31T02:26:10;99094.31;;;11.50;71.66
76940;BME280;65885;55.848;35.916;2023-05-31T02:28:38;99088.22;;;11.50;71.77
76940;BME280;65885;55.848;35.916;2023-05-31T02:31:06;99093.53;;;11.48;72.17
76940;BME280;65885;55.848;35.916;2023-05-31T02:33:33;99094.47;;;11.47;72.27
76940;BME280;65885;55.848;35.916;2023-05-31T02:36:01;99097.88;;;11.49;71.89
76940;BME280;65885;55.848;35.916;2023-05-31T02:38:31;99090.91;;;11.48;71.92
76940;BME280;65885;55.848;35.916;2023-05-31T02:40:58;99093.53;;;11.48;71.94
76940;BME280;65885;55.848;35.916;2023-05-31T02:43:26;99088.44;;;11.45;72.47
76940;BME280;65885;55.848;35.916;2023-05-31T02:45:53;99086.84;;;11.43;72.18
76940;BME280;65885;55.848;35.916;2023-05-31T02:48:21;99097.19;;;11.46;72.20
76940;BME280;65885;55.848;35.916;2023-05-31T02:50:48;99097.25;;;11.44;72.37
76940;BME280;65885;55.848;35.916;2023-05-31T02:53:15;99086.84;;;11.43;72.32
76940;BME280;65885;55.848;35.916;2023-05-31T02:55:44;99091.38;;;11.39;72.42
76940;BME280;65885;55.848;35.916;2023-05-31T02:58:12;99087.81;;;11.40;72.48
76940;BME280;65885;55.848;35.916;2023-05-31T03:00:40;99091.38;;;11.39;72.59
76940;BME280;65885;55.848;35.916;2023-05-31T03:03:07;99096.72;;;11.37;72.74
76940;BME280;65885;55.848;35.916;2023-05-31T03:05:36;99097.56;;;11.38;72.32
76940;BME280;65885;55.848;35.916;2023-05-31T03:08:04;99094.94;;;11.38;72.49
76940;BME280;65885;55.848;35.916;2023-05-31T03:10:31;99098.41;;;11.38;72.37
76940;BME280;65885;55.848;35.916;2023-05-31T03:13:00;99095.69;;;11.40;72.33
76940;BME280;65885;55.848;35.916;2023-05-31T03:15:28;99090.44;;;11.40;72.19
76940;BME280;65885;55.848;35.916;2023-05-31T03:17:56;99102.69;;;11.41;71.83
76940;BME280;65885;55.848;35.916;2023-05-31T03:20:23;99084.34;;;11.39;71.89
76940;BME280;65885;55.848;35.916;2023-05-31T03:22:52;99087.91;;;11.38;71.84
76940;BME280;65885;55.848;35.916;2023-05-31T03:25:20;99085.44;;;11.35;71.73
76940;BME280;65885;55.848;35.916;2023-05-31T03:27:48;99087.28;;;11.33;71.80
76940;BME280;65885;55.848;35.916;2023-05-31T03:30:17;99090.38;;;11.24;72.16
76940;BME280;65885;55.848;35.916;2023-05-31T03:32:45;99087.75;;;11.24;72.18
76940;BME280;65885;55.848;35.916;2023-05-31T03:35:12;99088.75;;;11.22;72.12
76940;BME280;65885;55.848;35.916;2023-05-31T03:37:39;99095.22;;;11.15;72.03
76940;BME280;65885;55.848;35.916;2023-05-31T03:40:08;99097.19;;;11.11;72.12
76940;BME280;65885;55.848;35.916;2023-05-31T03:42:35;99101.88;;;11.04;71.94
76940;BME280;65885;55.848;35.916;2023-05-31T03:45:04;99095.13;;;10.99;71.98
76940;BME280;65885;55.848;35.916;2023-05-31T03:47:34;99113.72;;;10.94;71.99
76940;BME280;65885;55.848;35.916;2023-05-31T03:50:03;99106.00;;;10.91;72.08
76940;BME280;65885;55.848;35.916;2023-05-31T03:52:30;99101.59;;;10.92;72.19
76940;BME280;65885;55.848;35.916;2023-05-31T03:54:59;99100.00;;;10.89;72.29
76940;BME280;65885;55.848;35.916;2023-05-31T03:57:29;99096.00;;;10.80;72.15
76940;BME280;65885;55.848;35.916;2023-05-31T03:59:57;99091.69;;;10.79;72.12
76940;BME280;65885;55.848;35.916;2023-05-31T04:02:25;99095.31;;;10.77;72.32
76940;BME280;65885;55.848;35.916;2023-05-31T04:04:54;99099.00;;;10.73;71.85
76940;BME280;65885;55.848;35.916;2023-05-31T04:07:21;99101.69;;;10.71;72.31
76940;BME280;65885;55.848;35.916;2023-05-31T04:09:49;99113.28;;;10.67;72.20
76940;BME280;65885;55.848;35.916;2023-05-31T04:12:16;99110.72;;;10.66;72.35
76940;BME280;65885;55.848;35.916;2023-05-31T04:14:44;99107.03;;;10.70;72.46
76940;BME280;65885;55.848;35.916;2023-05-31T04:17:11;99103.19;;;10.77;72.22
76940;BME280;65885;55.848;35.916;2023-05-31T04:19:40;99119.63;;;10.80;71.95
76940;BME280;65885;55.848;35.916;2023-05-31T04:22:09;99114.94;;;10.87;71.73
76940;BME280;65885;55.848;35.916;2023-05-31T04:24:37;99106.94;;;10.90;71.23
76940;BME280;65885;55.848;35.916;2023-05-31T04:27:05;99107.69;;;10.92;71.36
76940;BME280;65885;55.848;35.916;2023-05-31T04:29:33;99105.00;;;10.94;71.45
76940;BME280;65885;55.848;35.916;2023-05-31T04:32:00;99112.50;;;11.01;71.01
76940;BME280;65885;55.848;35.916;2023-05-31T04:34:28;99115.59;;;11.09;70.60
76940;BME280;65885;55.848;35.916;2023-05-31T04:36:56;99119.72;;;11.15;70.63
76940;BME280;65885;55.848;35.916;2023-05-31T04:39:25;99127.28;;;11.21;70.30
76940;BME280;65885;55.848;35.916;2023-05-31T04:41:53;99125.50;;;11.22;69.83
76940;BME280;65885;55.848;35.916;2023-05-31T04:44:21;99124.50;;;11.24;70.05
76940;BME280;65885;55.848;35.916;2023-05-31T04:46:51;99120.94;;;11.25;69.50
76940;BME280;65885;55.848;35.916;2023-05-31T04:49:18;99129.06;;;11.21;69.44
76940;BME280;65885;55.848;35.916;2023-05-31T04:51:45;99125.13;;;11.12;69.32
76940;BME280;65885;55.848;35.916;2023-05-31T04:54:13;99126.03;;;11.11;69.53
76940;BME280;65885;55.848;35.916;2023-05-31T04:56:42;99141.56;;;11.16;69.60
76940;BME280;65885;55.848;35.916;2023-05-31T04:59:09;99143.97;;;11.20;69.44
76940;BME280;65885;55.848;35.916;2023-05-31T05:01:36;99141.47;;;11.17;69.06
76940;BME280;65885;55.848;35.916;2023-05-31T05:04:05;99133.91;;;11.11;68.89
76940;BME280;65885;55.848;35.916;2023-05-31T05:06:33;99132.50;;;11.04;69.10
76940;BME280;65885;55.848;35.916;2023-05-31T05:09:03;99136.47;;;10.94;69.08
76940;BME280;65885;55.848;35.916;2023-05-31T05:11:31;99135.31;;;10.82;69.26
76940;BME280;65885;55.848;35.916;2023-05-31T05:14:00;99139.06;;;10.76;69.77
76940;BME280;65885;55.848;35.916;2023-05-31T05:16:27;99148.06;;;10.71;70.15
76940;BME280;65885;55.848;35.916;2023-05-31T05:19:00;99143.91;;;10.67;70.12
76940;BME280;65885;55.848;35.916;2023-05-31T05:21:28;99148.69;;;10.57;70.18
76940;BME280;65885;55.848;35.916;2023-05-31T05:23:55;99148.16;;;10.50;70.69
76940;BME280;65885;55.848;35.916;2023-05-31T05:26:23;99153.53;;;10.47;70.49
76940;BME280;65885;55.848;35.916;2023-05-31T05:28:51;99143.47;;;10.38;70.70
76940;BME280;65885;55.848;35.916;2023-05-31T05:31:20;99144.81;;;10.28;71.39
76940;BME280;65885;55.848;35.916;2023-05-31T05:33:47;99144.16;;;10.23;71.06
76940;BME280;65885;55.848;35.916;2023-05-31T05:36:15;99144.38;;;10.17;71.37
76940;BME280;65885;55.848;35.916;2023-05-31T05:38:42;99150.75;;;10.11;71.33
76940;BME280;65885;55.848;35.916;2023-05-31T05:41:09;99154.44;;;10.07;71.49
76940;BME280;65885;55.848;35.916;2023-05-31T05:43:38;99159.88;;;10.02;71.42
76940;BME280;65885;55.848;35.916;2023-05-31T05:46:05;99153.84;;;10.00;71.52
76940;BME280;65885;55.848;35.916;2023-05-31T05:48:34;99153.94;;;9.99;71.75
76940;BME280;65885;55.848;35.916;2023-05-31T05:51:02;99164.59;;;9.94;71.74
76940;BME280;65885;55.848;35.916;2023-05-31T05:53:30;99156.81;;;9.93;71.88
76940;BME280;65885;55.848;35.916;2023-05-31T05:55:57;99163.03;;;9.90;71.88
76940;BME280;65885;55.848;35.916;2023-05-31T05:58:25;99161.38;;;9.88;72.35
76940;BME280;65885;55.848;35.916;2023-05-31T06:00:52;99158.91;;;9.85;72.22
76940;BME280;65885;55.848;35.916;2023-05-31T06:03:20;99165.09;;;9.82;72.57
76940;BME280;65885;55.848;35.916;2023-05-31T06:05:50;99159.75;;;9.85;72.62
76940;BME280;65885;55.848;35.916;2023-05-31T06:08:18;99168.91;;;9.95;72.58
76940;BME280;65885;55.848;35.916;2023-05-31T06:10:45;99168.81;;;9.98;72.67
76940;BME280;65885;55.848;35.916;2023-05-31T06:13:13;99161.38;;;10.08;72.58
76940;BME280;65885;55.848;35.916;2023-05-31T06:15:41;99154.72;;;10.20;72.51
76940;BME280;65885;55.848;35.916;2023-05-31T06:18:08;99159.47;;;10.32;72.28
76940;BME280;65885;55.848;35.916;2023-05-31T06:20:36;99165.34;;;10.37;71.73
76940;BME280;65885;55.848;35.916;2023-05-31T06:23:04;99162.66;;;10.39;71.65
76940;BME280;65885;55.848;35.916;2023-05-31T06:25:32;99160.97;;;10.38;71.32
76940;BME280;65885;55.848;35.916;2023-05-31T06:28:02;99162.94;;;10.33;71.56
76940;BME280;65885;55.848;35.916;2023-05-31T06:30:29;99159.63;;;10.29;71.59
76940;BME280;65885;55.848;35.916;2023-05-31T06:32:57;99163.28;;;10.25;71.71
76940;BME280;65885;55.848;35.916;2023-05-31T06:35:25;99168.63;;;10.22;71.65
76940;BME280;65885;55.848;35.916;2023-05-31T06:37:53;99155.66;;;10.19;71.97
76940;BME280;65885;55.848;35.916;2023-05-31T06:40:22;99161.75;;;10.19;72.16
76940;BME280;65885;55.848;35.916;2023-05-31T06:42:49;99157.34;;;10.20;72.39
76940;BME280;65885;55.848;35.916;2023-05-31T06:45:17;99149.47;;;10.20;72.61
76940;BME280;65885;55.848;35.916;2023-05-31T06:47:45;99158.16;;;10.22;72.68
76940;BME280;65885;55.848;35.916;2023-05-31T06:50:13;99153.03;;;10.19;72.46
76940;BME280;65885;55.848;35.916;2023-05-31T06:52:40;99152.91;;;10.22;72.68
76940;BME280;65885;55.848;35.916;2023-05-31T06:55:08;99149.31;;;10.24;73.02
76940;BME280;65885;55.848;35.916;2023-05-31T06:57:37;99155.22;;;10.30;73.33
76940;BME280;65885;55.848;35.916;2023-05-31T07:00:05;99153.44;;;10.30;72.99
76940;BME280;65885;55.848;35.916;2023-05-31T07:02:34;99139.91;;;10.39;73.34
76940;BME280;65885;55.848;35.916;2023-05-31T07:05:01;99138.78;;;10.45;73.07
76940;BME280;65885;55.848;35.916;2023-05-31T07:07:29;99139.41;;;10.50;73.23
76940;BME280;65885;55.848;35.916;2023-05-31T07:09:57;99141.56;;;10.61;73.13
76940;BME280;65885;55.848;35.916;2023-05-31T07:12:24;99147.13;;;10.72;73.29
76940;BME280;65885;55.848;35.916;2023-05-31T07:14:53;99141.16;;;10.87;73.22
76940;BME280;65885;55.848;35.916;2023-05-31T07:17:21;99147.25;;;11.06;73.49
76940;BME280;65885;55.848;35.916;2023-05-31T07:19:49;99146.34;;;11.25;73.65
76940;BME280;65885;55.848;35.916;2023-05-31T07:22:17;99145.66;;;11.38;73.19
76940;BME280;65885;55.848;35.916;2023-05-31T07:24:47;99140.50;;;11.54;73.24
76940;BME280;65885;55.848;35.916;2023-05-31T07:27:23;99131.84;;;11.70;72.93
76940;BME280;65885;55.848;35.916;2023-05-31T07:29:55;99141.47;;;11.88;72.25
76940;BME280;65885;55.848;35.916;2023-05-31T07:32:23;99143.28;;;12.03;72.30
76940;BME280;65885;55.848;35.916;2023-05-31T07:34:51;99139.06;;;12.16;71.98
76940;BME280;65885;55.848;35.916;2023-05-31T07:37:20;99143.38;;;12.35;71.84
76940;BME280;65885;55.848;35.916;2023-05-31T07:39:53;99139.72;;;12.53;71.00
76940;BME280;65885;55.848;35.916;2023-05-31T07:42:23;99142.47;;;12.67;70.51
76940;BME280;65885;55.848;35.916;2023-05-31T07:44:58;99141.47;;;12.86;69.80
76940;BME280;65885;55.848;35.916;2023-05-31T07:51:04;99134.22;;;13.05;68.27
76940;BME280;65885;55.848;35.916;2023-05-31T07:53:40;99132.63;;;13.02;67.50
76940;BME280;65885;55.848;35.916;2023-05-31T07:56:17;99132.94;;;13.12;67.55
76940;BME280;65885;55.848;35.916;2023-05-31T07:58:49;99135.84;;;13.23;67.59
76940;BME280;65885;55.848;35.916;2023-05-31T08:01:17;99135.13;;;13.36;68.06
76940;BME280;65885;55.848;35.916;2023-05-31T08:03:45;99132.91;;;13.44;67.15
76940;BME280;65885;55.848;35.916;2023-05-31T08:06:12;99130.59;;;13.53;67.13
76940;BME280;65885;55.848;35.916;2023-05-31T08:08:39;99126.38;;;13.65;66.63
76940;BME280;65885;55.848;35.916;2023-05-31T08:11:08;99135.34;;;13.77;66.37
76940;BME280;65885;55.848;35.916;2023-05-31T08:13:36;99130.19;;;13.89;66.09
76940;BME280;65885;55.848;35.916;2023-05-31T08:16:04;99123.59;;;13.97;64.91
76940;BME280;65885;55.848;35.916;2023-05-31T08:18:33;99123.72;;;14.09;64.84
76940;BME280;65885;55.848;35.916;2023-05-31T08:21:01;99126.53;;;14.06;62.13
76940;BME280;65885;55.848;35.916;2023-05-31T08:23:28;99114.22;;;14.07;61.90
76940;BME280;65885;55.848;35.916;2023-05-31T08:25:55;99121.56;;;14.16;62.83
76940;BME280;65885;55.848;35.916;2023-05-31T08:28:23;99128.78;;;14.27;63.64
76940;BME280;65885;55.848;35.916;2023-05-31T08:30:51;99112.78;;;14.30;63.12
76940;BME280;65885;55.848;35.916;2023-05-31T08:33:18;99114.09;;;14.23;60.62
76940;BME280;65885;55.848;35.916;2023-05-31T08:35:47;99116.66;;;14.24;60.77
76940;BME280;65885;55.848;35.916;2023-05-31T08:38:14;99124.66;;;14.23;60.93
76940;BME280;65885;55.848;35.916;2023-05-31T08:40:43;99130.41;;;14.29;62.11
76940;BME280;65885;55.848;35.916;2023-05-31T08:43:13;99132.66;;;14.35;61.84
76940;BME280;65885;55.848;35.916;2023-05-31T08:45:46;99130.69;;;14.39;61.44
76940;BME280;65885;55.848;35.916;2023-05-31T08:48:21;99131.44;;;14.41;60.41
76940;BME280;65885;55.848;35.916;2023-05-31T08:50:54;99137.56;;;14.56;61.61
76940;BME280;65885;55.848;35.916;2023-05-31T08:53:24;99140.47;;;14.65;61.65
76940;BME280;65885;55.848;35.916;2023-05-31T08:55:52;99135.66;;;14.72;60.11
76940;BME280;65885;55.848;35.916;2023-05-31T08:58:22;99140.56;;;14.78;60.55
76940;BME280;65885;55.848;35.916;2023-05-31T09:00:50;99125.81;;;14.88;60.84
76940;BME280;65885;55.848;35.916;2023-05-31T09:03:20;99128.84;;;14.96;60.79
76940;BME280;65885;55.848;35.916;2023-05-31T09:05:48;99136.50;;;15.14;62.40
76940;BME280;65885;55.848;35.916;2023-05-31T09:08:18;99130.41;;;15.26;61.49
76940;BME280;65885;55.848;35.916;2023-05-31T09:10:46;99126.63;;;15.30;59.30
76940;BME280;65885;55.848;35.916;2023-05-31T09:13:14;99126.16;;;15.50;60.59
76940;BME280;65885;55.848;35.916;2023-05-31T09:15:43;99121.78;;;15.76;61.97
76940;BME280;65885;55.848;35.916;2023-05-31T09:18:15;99132.16;;;15.92;59.27
76940;BME280;65885;55.848;35.916;2023-05-31T09:20:42;99124.34;;;16.03;58.32
76940;BME280;65885;55.848;35.916;2023-05-31T09:23:10;99127.19;;;16.26;58.17
76940;BME280;65885;55.848;35.916;2023-05-31T09:25:47;99128.13;;;16.37;56.78
76940;BME280;65885;55.848;35.916;2023-05-31T09:28:18;99126.59;;;16.59;56.62
76940;BME280;65885;55.848;35.916;2023-05-31T09:31:00;99128.38;;;16.84;57.74
76940;BME280;65885;55.848;35.916;2023-05-31T09:33:40;99114.63;;;17.03;57.19
76940;BME280;65885;55.848;35.916;2023-05-31T09:36:11;99116.03;;;17.19;55.72
76940;BME280;65885;55.848;35.916;2023-05-31T09:38:40;99125.38;;;17.36;56.20
76940;BME280;65885;55.848;35.916;2023-05-31T09:41:14;99105.06;;;17.48;54.84
76940;BME280;65885;55.848;35.916;2023-05-31T09:43:43;99105.91;;;17.48;53.74
76940;BME280;65885;55.848;35.916;2023-05-31T09:46:12;99104.63;;;17.65;56.53
76940;BME280;65885;55.848;35.916;2023-05-31T09:48:39;99109.41;;;17.73;56.07
76940;BME280;65885;55.848;35.916;2023-05-31T09:51:07;99112.75;;;17.75;55.91
76940;BME280;65885;55.848;35.916;2023-05-31T09:53:40;99100.47;;;17.74;56.05
76940;BME280;65885;55.848;35.916;2023-05-31T09:56:09;99105.28;;;17.69;55.19
76940;BME280;65885;55.848;35.916;2023-05-31T09:58:38;99108.00;;;17.67;55.48
76940;BME280;65885;55.848;35.916;2023-05-31T10:01:06;99113.56;;;17.64;55.09
76940;BME280;65885;55.848;35.916;2023-05-31T10:03:36;99102.34;;;17.61;54.96
76940;BME280;65885;55.848;35.916;2023-05-31T10:06:05;99097.97;;;17.48;52.45
76940;BME280;65885;55.848;35.916;2023-05-31T10:08:34;99101.06;;;17.42;51.84
76940;BME280;65885;55.848;35.916;2023-05-31T10:11:02;99099.16;;;17.44;51.27
76940;BME280;65885;55.848;35.916;2023-05-31T10:13:31;99088.31;;;17.47;51.03
76940;BME280;65885;55.848;35.916;2023-05-31T10:16:04;99092.47;;;17.63;52.73
76940;BME280;65885;55.848;35.916;2023-05-31T10:18:33;99096.25;;;17.83;54.52
76940;BME280;65885;55.848;35.916;2023-05-31T10:21:10;99081.56;;;17.90;49.39
76940;BME280;65885;55.848;35.916;2023-05-31T10:23:43;99082.44;;;18.01;50.22
76940;BME280;65885;55.848;35.916;2023-05-31T10:26:13;99081.84;;;18.32;51.73
76940;BME280;65885;55.848;35.916;2023-05-31T10:28:45;99076.00;;;18.60;51.88
76940;BME280;65885;55.848;35.916;2023-05-31T10:31:16;99078.53;;;18.84;51.95
76940;BME280;65885;55.848;35.916;2023-05-31T10:33:48;99079.16;;;19.08;52.67
76940;BME280;65885;55.848;35.916;2023-05-31T10:36:20;99077.53;;;19.28;54.67
76940;BME280;65885;55.848;35.916;2023-05-31T10:38:52;99076.50;;;19.40;53.33
76940;BME280;65885;55.848;35.916;2023-05-31T10:41:24;99075.06;;;19.36;48.41
76940;BME280;65885;55.848;35.916;2023-05-31T10:44:00;99070.44;;;19.50;52.10
76940;BME280;65885;55.848;35.916;2023-05-31T10:46:33;99076.69;;;19.60;51.00
76940;BME280;65885;55.848;35.916;2023-05-31T10:49:05;99079.00;;;19.74;52.79
76940;BME280;65885;55.848;35.916;2023-05-31T10:51:39;99070.63;;;19.79;51.27
76940;BME280;65885;55.848;35.916;2023-05-31T10:54:07;99072.84;;;19.41;44.68
76940;BME280;65885;55.848;35.916;2023-05-31T10:56:36;99068.06;;;19.35;46.30
76940;BME280;65885;55.848;35.916;2023-05-31T10:59:08;99075.31;;;19.33;50.13
76940;BME280;65885;55.848;35.916;2023-05-31T11:01:38;99070.94;;;19.44;52.91
76940;BME280;65885;55.848;35.916;2023-05-31T11:04:18;99060.94;;;19.57;53.57
76940;BME280;65885;55.848;35.916;2023-05-31T11:06:47;99059.59;;;19.62;50.52
76940;BME280;65885;55.848;35.916;2023-05-31T11:09:18;99060.00;;;19.58;47.08
76940;BME280;65885;55.848;35.916;2023-05-31T11:11:47;99058.38;;;19.66;49.77
76940;BME280;65885;55.848;35.916;2023-05-31T11:14:27;99053.47;;;19.72;48.53
76940;BME280;65885;55.848;35.916;2023-05-31T11:17:15;99056.78;;;19.85;49.43
76940;BME280;65885;55.848;35.916;2023-05-31T11:19:43;99054.84;;;19.87;50.07
76940;BME280;65885;55.848;35.916;2023-05-31T11:22:24;99043.09;;;19.89;50.55
76940;BME280;65885;55.848;35.916;2023-05-31T11:24:54;99047.25;;;19.82;46.86
76940;BME280;65885;55.848;35.916;2023-05-31T11:27:34;99040.97;;;19.83;49.40
76940;BME280;65885;55.848;35.916;2023-05-31T11:30:04;99042.00;;;19.71;47.73
76940;BME280;65885;55.848;35.916;2023-05-31T11:32:56;99043.69;;;19.51;47.98
76940;BME280;65885;55.848;35.916;2023-05-31T11:35:31;99049.00;;;19.30;48.33
76940;BME280;65885;55.848;35.916;2023-05-31T11:38:03;99042.28;;;19.15;49.09
76940;BME280;65885;55.848;35.916;2023-05-31T11:40:32;99043.44;;;19.01;49.75
76940;BME280;65885;55.848;35.916;2023-05-31T11:43:11;99041.78;;;18.89;50.53
76940;BME280;65885;55.848;35.916;2023-05-31T11:45:46;99042.66;;;18.90;52.80
76940;BME280;65885;55.848;35.916;2023-05-31T11:48:36;99026.97;;;19.07;54.52
76940;BME280;65885;55.848;35.916;2023-05-31T11:51:04;99035.03;;;19.38;55.53
76940;BME280;65885;55.848;35.916;2023-05-31T11:53:33;99026.25;;;19.58;50.73
76940;BME280;65885;55.848;35.916;2023-05-31T11:56:01;99026.66;;;19.84;51.49
76940;BME280;65885;55.848;35.916;2023-05-31T11:58:28;99022.44;;;20.03;51.01
76940;BME280;65885;55.848;35.916;2023-05-31T12:00:59;99018.81;;;20.13;46.68
76940;BME280;65885;55.848;35.916;2023-05-31T12:03:29;99017.59;;;20.27;47.94
76940;BME280;65885;55.848;35.916;2023-05-31T12:05:57;99024.38;;;20.41;47.06
76940;BME280;65885;55.848;35.916;2023-05-31T12:08:26;99015.75;;;20.48;45.57
76940;BME280;65885;55.848;35.916;2023-05-31T12:11:00;99026.97;;;20.62;47.65
76940;BME280;65885;55.848;35.916;2023-05-31T12:13:30;99019.34;;;20.47;42.96
76940;BME280;65885;55.848;35.916;2023-05-31T12:15:58;99021.97;;;20.38;46.67
76940;BME280;65885;55.848;35.916;2023-05-31T12:18:25;99025.25;;;20.11;42.06
76940;BME280;65885;55.848;35.916;2023-05-31T12:20:54;99012.69;;;19.92;44.10
76940;BME280;65885;55.848;35.916;2023-05-31T12:23:21;99017.97;;;19.82;47.02
76940;BME280;65885;55.848;35.916;2023-05-31T12:25:50;99012.72;;;19.71;46.92
76940;BME280;65885;55.848;35.916;2023-05-31T12:28:18;99019.56;;;19.43;43.27
76940;BME280;65885;55.848;35.916;2023-05-31T12:30:47;99026.22;;;19.37;47.46
76940;BME280;65885;55.848;35.916;2023-05-31T12:33:15;99007.28;;;19.31;44.26
76940;BME280;65885;55.848;35.916;2023-05-31T12:35:43;99009.34;;;19.48;46.38
76940;BME280;65885;55.848;35.916;2023-05-31T12:38:12;99005.47;;;19.73;48.64
76940;BME280;65885;55.848;35.916;2023-05-31T12:40:44;99004.88;;;20.00;50.74
76940;BME280;65885;55.848;35.916;2023-05-31T12:43:12;98999.06;;;20.16;48.22
76940;BME280;65885;55.848;35.916;2023-05-31T12:45:44;98999.97;;;20.36;48.00
76940;BME280;65885;55.848;35.916;2023-05-31T12:48:11;98987.19;;;20.39;42.03
76940;BME280;65885;55.848;35.916;2023-05-31T12:50:45;99000.88;;;20.56;45.99
76940;BME280;65885;55.848;35.916;2023-05-31T12:53:14;98994.72;;;20.74;49.09
76940;BME280;65885;55.848;35.916;2023-05-31T12:55:41;98996.97;;;20.89;48.59
76940;BME280;65885;55.848;35.916;2023-05-31T12:58:09;98990.66;;;20.99;49.19
76940;BME280;65885;55.848;35.916;2023-05-31T13:00:36;98993.31;;;20.99;44.56
76940;BME280;65885;55.848;35.916;2023-05-31T13:03:04;98986.59;;;20.86;41.39
76940;BME280;65885;55.848;35.916;2023-05-31T13:05:38;98994.72;;;20.84;43.42